Time,TemperatureF,DewpointF,PressureIn,WindDirection,WindDirectionDegrees,WindSpeedMPH,WindSpeedGustMPH,Humidity,HourlyPrecipIn,Conditions,Clouds,dailyrainin,SoftwareType,DateUTC
2013-03-01 00:00:00,15.2,9.9,30.36,NE,38,5.0,6.0,79,0.00,,CLR,0.00,VWS V14.01,2013-03-01 06:00:00,
2013-03-01 00:02:00,16.7,10.5,30.35,NNE,30,4.0,5.0,76,0.00,,CLR,0.00,VWS V14.01,2013-03-01 06:02:00,
2013-03-01 00:05:00,15.4,10.1,30.36,NNE,29,4.0,5.0,79,0.00,,CLR,0.00,VWS V14.01,2013-03-01 06:05:00,
2013-03-01 00:07:00,16.6,10.4,30.35,NNE,22,3.0,5.0,76,0.00,,CLR,0.00,VWS V14.01,2013-03-01 06:07:00,
2013-03-01 00:10:00,15.3,10.0,30.37,NNE,29,3.0,5.0,79,0.00,,CLR,0.00,VWS V14.01,2013-03-01 06:10:00,
2013-03-01 00:12:00,16.3,10.1,30.35,NNE,22,3.0,4.0,76,0.00,,CLR,0.00,VWS V14.01,2013-03-01 06:12:00,
2013-03-01 00:15:00,15.1,9.8,30.36,NNE,29,5.0,5.0,79,0.00,,CLR,0.00,VWS V14.01,2013-03-01 06:15:00,
2013-03-01 00:17:00,15.8,9.6,30.35,NNE,22,3.0,4.0,76,0.00,,CLR,0.00,VWS V14.01,2013-03-01 06:17:00,
2013-03-01 00:20:00,15.0,9.7,30.37,NNE,29,4.0,5.0,79,0.00,,CLR,0.00,VWS V14.01,2013-03-01 06:20:00,
2013-03-01 00:22:00,15.3,9.1,30.36,North,360,4.0,5.0,76,0.00,,CLR,0.00,VWS V14.01,2013-03-01 06:22:00,
2013-03-01 00:25:00,14.9,9.6,30.36,NNE,29,3.0,5.0,79,0.00,,CLR,0.00,VWS V14.01,2013-03-01 06:25:00,
2013-03-01 00:27:00,15.0,9.1,30.36,North,5,4.0,5.0,77,0.00,,CLR,0.00,VWS V14.01,2013-03-01 06:27:00,
2013-03-01 00:30:00,14.8,9.5,30.37,NNE,29,3.0,5.0,79,0.00,,CLR,0.00,VWS V14.01,2013-03-01 06:30:00,
2013-03-01 00:32:00,14.7,8.8,30.36,NNE,22,5.0,7.0,77,0.00,,CLR,0.00,VWS V14.01,2013-03-01 06:32:00,
2013-03-01 00:35:00,14.7,9.7,30.37,NNE,29,3.0,4.0,80,0.00,,CLR,0.00,VWS V14.01,2013-03-01 06:35:00,
2013-03-01 00:37:00,14.6,9.0,30.36,NE,36,4.0,6.0,78,0.00,,CLR,0.00,VWS V14.01,2013-03-01 06:37:00,
2013-03-01 00:40:00,14.6,9.6,30.37,NNE,29,2.0,3.0,80,0.00,,CLR,0.00,VWS V14.01,2013-03-01 06:40:00,
2013-03-01 00:42:00,14.9,9.6,30.36,NNE,26,5.0,7.0,79,0.00,,CLR,0.00,VWS V14.01,2013-03-01 06:42:00,
2013-03-01 00:45:00,14.6,9.6,30.37,NNE,29,2.0,3.0,80,0.00,,CLR,0.00,VWS V14.01,2013-03-01 06:45:00,
2013-03-01 00:47:00,15.1,9.8,30.36,NNE,30,4.0,6.0,79,0.00,,CLR,0.00,VWS V14.01,2013-03-01 06:47:00,
2013-03-01 00:50:00,14.4,9.4,30.37,NNE,29,3.0,3.0,80,0.00,,CLR,0.00,VWS V14.01,2013-03-01 06:50:00,
2013-03-01 00:52:00,15.2,9.9,30.36,NNE,26,4.0,6.0,79,0.00,,BKN023,0.00,VWS V14.01,2013-03-01 06:52:00,
2013-03-01 00:55:00,14.3,9.6,30.38,North,360,3.0,4.0,81,0.00,,CLR,0.00,VWS V14.01,2013-03-01 06:55:00,
2013-03-01 00:57:00,15.2,9.9,30.36,NNE,27,4.0,4.0,79,0.00,,BKN023,0.00,VWS V14.01,2013-03-01 06:57:00,
2013-03-01 01:00:00,14.5,9.7,30.38,North,360,3.0,4.0,81,0.00,,CLR,0.00,VWS V14.01,2013-03-01 07:00:00,
2013-03-01 01:02:00,15.2,9.9,30.36,NE,40,5.0,6.0,79,0.00,,BKN023,0.00,VWS V14.01,2013-03-01 07:02:00,
2013-03-01 01:05:00,14.6,9.8,30.38,North,5,3.0,4.0,81,0.00,,CLR,0.00,VWS V14.01,2013-03-01 07:05:00,
2013-03-01 01:07:00,15.3,10.0,30.36,NNE,29,4.0,5.0,79,0.00,,BKN023,0.00,VWS V14.01,2013-03-01 07:07:00,
2013-03-01 01:10:00,14.4,9.6,30.38,North,5,2.0,4.0,81,0.00,,CLR,0.00,VWS V14.01,2013-03-01 07:10:00,
2013-03-01 01:12:00,15.3,10.0,30.37,NNE,29,3.0,5.0,79,0.00,,BKN023,0.00,VWS V14.01,2013-03-01 07:12:00,
2013-03-01 01:15:00,14.2,9.4,30.38,North,355,3.0,4.0,81,0.00,,CLR,0.00,VWS V14.01,2013-03-01 07:15:00,
2013-03-01 01:17:00,15.2,9.9,30.36,NNE,29,3.0,4.0,79,0.00,,BKN023,0.00,VWS V14.01,2013-03-01 07:17:00,
2013-03-01 01:20:00,14.3,9.6,30.38,NNW,340,3.0,4.0,81,0.00,,CLR,0.00,VWS V14.01,2013-03-01 07:20:00,
2013-03-01 01:22:00,15.0,9.7,30.37,NNE,29,5.0,5.0,79,0.00,,BKN023,0.00,VWS V14.01,2013-03-01 07:22:00,
2013-03-01 01:25:00,14.3,9.8,30.38,North,351,2.0,4.0,82,0.00,,CLR,0.00,VWS V14.01,2013-03-01 07:25:00,
2013-03-01 01:27:00,14.9,9.9,30.36,NNE,29,4.0,5.0,80,0.00,,BKN023,0.00,VWS V14.01,2013-03-01 07:27:00,
2013-03-01 01:30:00,14.4,9.9,30.39,NNW,348,3.0,5.0,82,0.00,,CLR,0.00,VWS V14.01,2013-03-01 07:30:00,
2013-03-01 01:32:00,14.8,9.5,30.37,NNE,29,3.0,5.0,79,0.00,,BKN023,0.00,VWS V14.01,2013-03-01 07:32:00,
2013-03-01 01:35:00,14.6,10.4,30.38,North,349,0.0,4.0,83,0.00,,CLR,0.00,VWS V14.01,2013-03-01 07:35:00,
2013-03-01 01:37:00,14.7,9.7,30.37,NNE,29,2.0,4.0,80,0.00,,OVC021,0.00,VWS V14.01,2013-03-01 07:37:00,
2013-03-01 01:40:00,14.8,10.3,30.38,NNW,342,0.0,4.0,82,0.00,,CLR,0.00,VWS V14.01,2013-03-01 07:40:00,
2013-03-01 01:42:00,14.6,9.6,30.37,NNE,29,2.0,3.0,80,0.00,,OVC021,0.00,VWS V14.01,2013-03-01 07:42:00,
2013-03-01 01:45:00,14.8,10.6,30.39,NNW,343,1.0,2.0,83,0.00,,CLR,0.00,VWS V14.01,2013-03-01 07:45:00,
2013-03-01 01:48:00,14.6,9.6,30.37,NNE,29,2.0,3.0,80,0.00,,OVC021,0.00,VWS V14.01,2013-03-01 07:48:00,
2013-03-01 01:50:00,14.9,10.4,30.39,North,349,3.0,3.0,82,0.00,,CLR,0.00,VWS V14.01,2013-03-01 07:50:00,
2013-03-01 01:53:00,14.4,9.4,30.37,NNE,29,3.0,3.0,80,0.00,,OVC021,0.00,VWS V14.01,2013-03-01 07:53:00,
2013-03-01 01:55:00,14.8,10.6,30.39,North,355,3.0,4.0,83,0.00,,CLR,0.00,VWS V14.01,2013-03-01 07:55:00,
2013-03-01 01:58:00,14.3,9.6,30.38,North,5,3.0,4.0,81,0.00,,OVC021,0.00,VWS V14.01,2013-03-01 07:58:00,
2013-03-01 02:00:00,14.9,10.7,30.38,North,11,3.0,4.0,83,0.00,,CLR,0.00,VWS V14.01,2013-03-01 08:00:00,
2013-03-01 02:03:00,14.5,9.7,30.38,North,360,3.0,4.0,81,0.00,,OVC021,0.00,VWS V14.01,2013-03-01 08:03:00,
2013-03-01 02:05:00,15.0,11.1,30.38,NNE,22,3.0,5.0,84,0.00,,CLR,0.00,VWS V14.01,2013-03-01 08:05:00,
2013-03-01 02:08:00,14.6,9.8,30.38,North,5,3.0,4.0,81,0.00,,OVC021,0.00,VWS V14.01,2013-03-01 08:08:00,
2013-03-01 02:10:00,15.0,11.1,30.38,North,360,3.0,5.0,84,0.00,,CLR,0.00,VWS V14.01,2013-03-01 08:10:00,
2013-03-01 02:13:00,14.4,9.6,30.38,North,5,2.0,4.0,81,0.00,,OVC021,0.00,VWS V14.01,2013-03-01 08:13:00,
2013-03-01 02:15:00,15.1,13.2,30.38,North,9,4.0,4.0,92,0.00,,CLR,0.00,VWS V14.01,2013-03-01 08:15:00,
2013-03-01 02:18:00,14.2,9.4,30.38,North,355,3.0,4.0,81,0.00,,OVC021,0.00,VWS V14.01,2013-03-01 08:18:00,
2013-03-01 02:20:00,15.2,11.2,30.39,NNE,13,5.0,5.0,84,0.00,,CLR,0.00,VWS V14.01,2013-03-01 08:20:00,
2013-03-01 02:23:00,14.3,9.6,30.38,NNW,340,3.0,4.0,81,0.00,,OVC021,0.00,VWS V14.01,2013-03-01 08:23:00,
2013-03-01 02:25:00,15.4,11.4,30.38,NNE,28,5.0,5.0,84,0.00,,CLR,0.00,VWS V14.01,2013-03-01 08:25:00,
2013-03-01 02:28:00,14.3,9.8,30.38,North,351,2.0,4.0,82,0.00,,OVC021,0.00,VWS V14.01,2013-03-01 08:28:00,
2013-03-01 02:30:00,15.7,12.0,30.38,NNE,19,3.0,5.0,85,0.00,,CLR,0.00,VWS V14.01,2013-03-01 08:30:00,
2013-03-01 02:33:00,14.4,9.9,30.39,NNW,348,3.0,5.0,82,0.00,,OVC021,0.00,VWS V14.01,2013-03-01 08:33:00,
2013-03-01 02:35:00,16.0,12.3,30.38,NNE,21,3.0,4.0,85,0.00,,CLR,0.00,VWS V14.01,2013-03-01 08:35:00,
2013-03-01 02:38:00,14.6,10.1,30.38,North,349,0.0,4.0,82,0.00,,OVC023,0.00,VWS V14.01,2013-03-01 08:38:00,
2013-03-01 02:40:00,16.1,12.1,30.39,NNE,15,3.0,5.0,84,0.00,,CLR,0.00,VWS V14.01,2013-03-01 08:40:00,
2013-03-01 02:43:00,14.8,10.3,30.38,NNW,342,0.0,4.0,82,0.00,,OVC023,0.00,VWS V14.01,2013-03-01 08:43:00,
2013-03-01 02:45:00,16.2,12.2,30.39,North,360,5.0,8.0,84,0.00,,CLR,0.00,VWS V14.01,2013-03-01 08:45:00,
2013-03-01 02:48:00,14.8,10.6,30.39,NNW,343,1.0,2.0,83,0.00,,OVC023,0.00,VWS V14.01,2013-03-01 08:48:00,
2013-03-01 02:50:00,16.4,12.7,30.39,North,5,7.0,9.0,85,0.00,,CLR,0.00,VWS V14.01,2013-03-01 08:50:00,
2013-03-01 02:53:00,14.9,10.4,30.39,North,349,3.0,3.0,82,0.00,,OVC023,0.00,VWS V14.01,2013-03-01 08:53:00,
2013-03-01 02:55:00,16.6,12.9,30.39,North,360,7.0,10.0,85,0.00,,CLR,0.00,VWS V14.01,2013-03-01 08:55:00,
2013-03-01 02:58:00,14.8,10.6,30.39,North,355,3.0,4.0,83,0.00,,OVC023,0.00,VWS V14.01,2013-03-01 08:58:00,
2013-03-01 03:00:00,16.7,13.0,30.39,North,5,5.0,10.0,85,0.00,,CLR,0.00,VWS V14.01,2013-03-01 09:00:00,
2013-03-01 03:03:00,14.9,10.7,30.38,North,11,3.0,4.0,83,0.00,,OVC023,0.00,VWS V14.01,2013-03-01 09:03:00,
2013-03-01 03:05:00,16.8,12.8,30.39,North,355,4.0,9.0,84,0.00,,CLR,0.00,VWS V14.01,2013-03-01 09:05:00,
2013-03-01 03:08:00,15.0,11.1,30.38,NNE,22,3.0,5.0,84,0.00,,OVC023,0.00,VWS V14.01,2013-03-01 09:08:00,
2013-03-01 03:10:00,16.8,12.8,30.39,North,360,6.0,7.0,84,0.00,,CLR,0.00,VWS V14.01,2013-03-01 09:10:00,
2013-03-01 03:13:00,15.0,11.1,30.38,North,360,3.0,5.0,84,0.00,,OVC023,0.00,VWS V14.01,2013-03-01 09:13:00,
2013-03-01 03:15:00,16.9,12.9,30.39,NNW,348,6.0,9.0,84,0.00,,CLR,0.00,VWS V14.01,2013-03-01 09:15:00,
2013-03-01 03:18:00,15.1,13.2,30.38,North,9,4.0,4.0,92,0.00,,OVC023,0.00,VWS V14.01,2013-03-01 09:18:00,
2013-03-01 03:20:00,17.0,13.0,30.40,North,5,5.0,10.0,84,0.00,,CLR,0.00,VWS V14.01,2013-03-01 09:20:00,
2013-03-01 03:23:00,15.2,11.2,30.39,NNE,13,5.0,5.0,84,0.00,,OVC023,0.00,VWS V14.01,2013-03-01 09:23:00,
2013-03-01 03:25:00,17.1,13.1,30.40,North,5,5.0,7.0,84,0.00,,CLR,0.00,VWS V14.01,2013-03-01 09:25:00,
2013-03-01 03:28:00,15.4,11.4,30.38,NNE,28,5.0,5.0,84,0.00,,OVC023,0.00,VWS V14.01,2013-03-01 09:28:00,
2013-03-01 03:30:00,17.0,13.0,30.40,North,350,3.0,6.0,84,0.00,,CLR,0.00,VWS V14.01,2013-03-01 09:30:00,
2013-03-01 03:33:00,15.7,12.0,30.38,NNE,19,3.0,5.0,85,0.00,,OVC023,0.00,VWS V14.01,2013-03-01 09:33:00,
2013-03-01 03:35:00,17.0,13.0,30.40,North,5,5.0,7.0,84,0.00,,CLR,0.00,VWS V14.01,2013-03-01 09:35:00,
2013-03-01 03:38:00,16.0,12.3,30.38,NNE,21,3.0,4.0,85,0.00,,OVC023,0.00,VWS V14.01,2013-03-01 09:38:00,
2013-03-01 03:40:00,17.0,13.0,30.40,NNE,18,9.0,11.0,84,0.00,,CLR,0.00,VWS V14.01,2013-03-01 09:40:00,
2013-03-01 03:43:00,16.1,12.1,30.39,NNE,14,3.0,5.0,84,0.00,,OVC023,0.00,VWS V14.01,2013-03-01 09:43:00,
2013-03-01 03:45:00,17.0,13.0,30.40,NNE,14,6.0,11.0,84,0.00,,CLR,0.00,VWS V14.01,2013-03-01 09:45:00,
2013-03-01 03:48:00,16.2,12.2,30.39,North,360,5.0,8.0,84,0.00,,OVC023,0.00,VWS V14.01,2013-03-01 09:48:00,
2013-03-01 03:50:00,17.1,13.1,30.41,North,10,9.0,10.0,84,0.00,,CLR,0.00,VWS V14.01,2013-03-01 09:50:00,
2013-03-01 03:53:00,16.4,12.7,30.39,North,5,7.0,9.0,85,0.00,,OVC023,0.00,VWS V14.01,2013-03-01 09:53:00,
2013-03-01 03:55:00,17.1,13.1,30.41,North,11,6.0,10.0,84,0.00,,CLR,0.00,VWS V14.01,2013-03-01 09:55:00,
2013-03-01 03:58:00,16.6,12.9,30.39,North,360,7.0,10.0,85,0.00,,OVC023,0.00,VWS V14.01,2013-03-01 09:58:00,
2013-03-01 04:00:00,17.1,13.1,30.41,North,9,7.0,9.0,84,0.00,,CLR,0.00,VWS V14.01,2013-03-01 10:00:00,
2013-03-01 04:03:00,16.7,13.0,30.39,North,5,5.0,10.0,85,0.00,,OVC023,0.00,VWS V14.01,2013-03-01 10:03:00,
2013-03-01 04:05:00,17.2,13.2,30.42,NNE,13,9.0,10.0,84,0.00,,CLR,0.00,VWS V14.01,2013-03-01 10:05:00,
2013-03-01 04:08:00,16.8,12.8,30.39,North,355,4.0,9.0,84,0.00,,OVC023,0.00,VWS V14.01,2013-03-01 10:08:00,
2013-03-01 04:10:00,17.2,13.2,30.42,NNE,21,5.0,10.0,84,0.00,,CLR,0.00,VWS V14.01,2013-03-01 10:10:00,
2013-03-01 04:13:00,16.8,12.8,30.39,North,360,6.0,7.0,84,0.00,,OVC023,0.00,VWS V14.01,2013-03-01 10:13:00,
2013-03-01 04:15:00,17.2,13.2,30.42,NNE,19,4.0,7.0,84,0.00,,CLR,0.00,VWS V14.01,2013-03-01 10:15:00,
2013-03-01 04:18:00,16.9,12.9,30.39,NNW,348,6.0,9.0,84,0.00,,OVC023,0.00,VWS V14.01,2013-03-01 10:18:00,
2013-03-01 04:20:00,17.2,12.9,30.42,NNE,19,7.0,9.0,83,0.00,,CLR,0.00,VWS V14.01,2013-03-01 10:20:00,
2013-03-01 04:23:00,17.0,13.0,30.40,North,5,5.0,10.0,84,0.00,,OVC023,0.00,VWS V14.01,2013-03-01 10:23:00,
2013-03-01 04:25:00,17.3,13.0,30.42,NNE,24,5.0,9.0,83,0.00,,CLR,0.00,VWS V14.01,2013-03-01 10:25:00,
2013-03-01 04:28:00,17.1,13.1,30.40,North,5,5.0,7.0,84,0.00,,OVC023,0.00,VWS V14.01,2013-03-01 10:28:00,
2013-03-01 04:30:00,17.4,13.4,30.42,NNE,23,4.0,7.0,84,0.00,,CLR,0.00,VWS V14.01,2013-03-01 10:30:00,
2013-03-01 04:33:00,17.0,13.0,30.40,North,350,3.0,6.0,84,0.00,,OVC023,0.00,VWS V14.01,2013-03-01 10:33:00,
2013-03-01 04:35:00,17.6,13.3,30.42,NNE,24,5.0,6.0,83,0.00,,CLR,0.00,VWS V14.01,2013-03-01 10:35:00,
2013-03-01 04:38:00,17.0,13.0,30.40,North,5,5.0,7.0,84,0.00,,OVC023,0.00,VWS V14.01,2013-03-01 10:38:00,
2013-03-01 04:40:00,17.6,13.3,30.42,NNE,32,3.0,5.0,83,0.00,,CLR,0.00,VWS V14.01,2013-03-01 10:40:00,
2013-03-01 04:43:00,17.0,13.0,30.40,NNE,18,9.0,11.0,84,0.00,,OVC023,0.00,VWS V14.01,2013-03-01 10:43:00,
2013-03-01 04:45:00,17.7,13.4,30.42,NNE,29,6.0,6.0,83,0.00,,CLR,0.00,VWS V14.01,2013-03-01 10:45:00,
2013-03-01 04:48:00,17.0,13.0,30.40,NNE,14,6.0,11.0,84,0.00,,OVC023,0.00,VWS V14.01,2013-03-01 10:48:00,
2013-03-01 04:50:00,17.8,13.2,30.42,NNE,17,5.0,8.0,82,0.00,,CLR,0.00,VWS V14.01,2013-03-01 10:50:00,
2013-03-01 04:53:00,17.1,13.1,30.41,North,10,9.0,10.0,84,0.00,,OVC023,0.00,VWS V14.01,2013-03-01 10:53:00,
2013-03-01 04:55:00,17.8,13.2,30.42,NNE,26,5.0,6.0,82,0.00,,CLR,0.00,VWS V14.01,2013-03-01 10:55:00,
2013-03-01 04:58:00,17.1,13.1,30.41,North,11,6.0,10.0,84,0.00,,OVC023,0.00,VWS V14.01,2013-03-01 10:58:00,
2013-03-01 05:00:00,17.9,13.4,30.42,NNE,33,5.0,6.0,82,0.00,,CLR,0.00,VWS V14.01,2013-03-01 11:00:00,
2013-03-01 05:03:00,17.1,13.1,30.41,North,9,7.0,9.0,84,0.00,,OVC023,0.00,VWS V14.01,2013-03-01 11:03:00,
2013-03-01 05:05:00,17.9,13.4,30.42,NNE,22,5.0,7.0,82,0.00,,CLR,0.00,VWS V14.01,2013-03-01 11:05:00,
2013-03-01 05:08:00,17.2,13.2,30.42,NNE,13,9.0,10.0,84,0.00,,OVC023,0.00,VWS V14.01,2013-03-01 11:08:00,
2013-03-01 05:10:00,17.9,13.4,30.42,NNE,27,6.0,8.0,82,0.00,,CLR,0.00,VWS V14.01,2013-03-01 11:10:00,
2013-03-01 05:13:00,17.2,13.2,30.42,NNE,21,5.0,10.0,84,0.00,,OVC023,0.00,VWS V14.01,2013-03-01 11:13:00,
2013-03-01 05:15:00,17.9,13.4,30.42,NNE,26,7.0,10.0,82,0.00,,CLR,0.00,VWS V14.01,2013-03-01 11:15:00,
2013-03-01 05:18:00,17.2,13.2,30.42,NNE,19,4.0,7.0,84,0.00,,OVC023,0.00,VWS V14.01,2013-03-01 11:18:00,
2013-03-01 05:20:00,17.9,13.4,30.43,NNE,28,5.0,9.0,82,0.00,,CLR,0.00,VWS V14.01,2013-03-01 11:20:00,
2013-03-01 05:23:00,17.2,12.9,30.42,NNE,19,7.0,9.0,83,0.00,,OVC023,0.00,VWS V14.01,2013-03-01 11:23:00,
2013-03-01 05:25:00,18.0,13.4,30.43,NNE,28,6.0,7.0,82,0.00,,CLR,0.00,VWS V14.01,2013-03-01 11:25:00,
2013-03-01 05:28:00,17.3,13.0,30.42,NNE,24,5.0,9.0,83,0.00,,OVC023,0.00,VWS V14.01,2013-03-01 11:28:00,
2013-03-01 05:30:00,18.0,13.4,30.44,NNE,19,6.0,9.0,82,0.00,,CLR,0.00,VWS V14.01,2013-03-01 11:30:00,
2013-03-01 05:33:00,17.4,13.4,30.42,NNE,23,4.0,7.0,84,0.00,,OVC023,0.00,VWS V14.01,2013-03-01 11:33:00,
2013-03-01 05:35:00,18.0,13.4,30.44,NNE,22,6.0,9.0,82,0.00,,CLR,0.00,VWS V14.01,2013-03-01 11:35:00,
2013-03-01 05:38:00,17.6,13.3,30.42,NNE,24,5.0,6.0,83,0.00,,OVC023,0.00,VWS V14.01,2013-03-01 11:38:00,
2013-03-01 05:40:00,18.0,13.4,30.44,NNE,33,3.0,7.0,82,0.00,,CLR,0.00,VWS V14.01,2013-03-01 11:40:00,
2013-03-01 05:43:00,17.6,13.3,30.42,NNE,32,3.0,5.0,83,0.00,,OVC023,0.00,VWS V14.01,2013-03-01 11:43:00,
2013-03-01 05:45:00,18.0,13.4,30.44,NNE,28,5.0,7.0,82,0.00,,CLR,0.00,VWS V14.01,2013-03-01 11:45:00,
2013-03-01 05:48:00,17.7,13.4,30.42,NNE,29,6.0,6.0,83,0.00,,OVC023,0.00,VWS V14.01,2013-03-01 11:48:00,
2013-03-01 05:50:00,18.1,13.5,30.44,NE,42,4.0,9.0,82,0.00,,CLR,0.00,VWS V14.01,2013-03-01 11:50:00,
2013-03-01 05:53:00,17.8,13.2,30.42,NNE,17,5.0,8.0,82,0.00,,OVC023,0.00,VWS V14.01,2013-03-01 11:53:00,
2013-03-01 05:55:00,18.2,13.6,30.44,NNE,31,5.0,7.0,82,0.00,,CLR,0.00,VWS V14.01,2013-03-01 11:55:00,
2013-03-01 05:58:00,17.8,13.2,30.42,NNE,26,5.0,6.0,82,0.00,,OVC023,0.00,VWS V14.01,2013-03-01 11:58:00,
2013-03-01 06:00:00,18.2,13.4,30.45,NNE,19,3.0,6.0,81,0.00,,CLR,0.00,VWS V14.01,2013-03-01 12:00:00,
2013-03-01 06:03:00,17.9,13.4,30.42,NNE,21,5.0,5.0,82,0.00,,OVC023,0.00,VWS V14.01,2013-03-01 12:03:00,
2013-03-01 06:05:00,18.2,13.4,30.45,NNE,26,6.0,6.0,81,0.00,,CLR,0.00,VWS V14.01,2013-03-01 12:05:00,
2013-03-01 06:08:00,17.9,13.4,30.43,NNE,28,5.0,5.0,82,0.00,,OVC023,0.00,VWS V14.01,2013-03-01 12:08:00,
2013-03-01 06:10:00,18.3,13.7,30.45,NNE,22,5.0,6.0,82,0.00,,CLR,0.00,VWS V14.01,2013-03-01 12:10:00,
2013-03-01 06:13:00,17.9,13.4,30.42,NNE,25,7.0,7.0,82,0.00,,OVC023,0.00,VWS V14.01,2013-03-01 12:13:00,
2013-03-01 06:15:00,18.3,13.7,30.45,NNE,24,5.0,9.0,82,0.00,,CLR,0.00,VWS V14.01,2013-03-01 12:15:00,
2013-03-01 06:18:00,18.0,13.4,30.43,NNE,26,4.0,7.0,82,0.00,,OVC023,0.00,VWS V14.01,2013-03-01 12:18:00,
2013-03-01 06:20:00,18.4,13.8,30.46,NNE,24,6.0,8.0,82,0.00,,CLR,0.00,VWS V14.01,2013-03-01 12:20:00,
2013-03-01 06:23:00,18.0,13.4,30.43,NNE,26,5.0,6.0,82,0.00,,OVC023,0.00,VWS V14.01,2013-03-01 12:23:00,
2013-03-01 06:25:00,18.5,13.9,30.46,NNE,16,7.0,9.0,82,0.00,,CLR,0.00,VWS V14.01,2013-03-01 12:25:00,
2013-03-01 06:29:00,18.0,13.4,30.43,NNE,20,7.0,7.0,82,0.00,,OVC023,0.00,VWS V14.01,2013-03-01 12:29:00,
2013-03-01 06:30:00,18.6,14.0,30.46,NNE,24,5.0,10.0,82,0.00,,CLR,0.00,VWS V14.01,2013-03-01 12:30:00,
2013-03-01 06:34:00,18.0,13.4,30.44,NNE,21,6.0,9.0,82,0.00,,OVC023,0.00,VWS V14.01,2013-03-01 12:34:00,
2013-03-01 06:35:00,18.8,13.9,30.46,NNE,30,6.0,10.0,81,0.00,,CLR,0.00,VWS V14.01,2013-03-01 12:35:00,
2013-03-01 06:39:00,18.0,13.4,30.44,NNE,26,5.0,7.0,82,0.00,,OVC023,0.00,VWS V14.01,2013-03-01 12:39:00,
2013-03-01 06:40:00,19.0,14.1,30.46,NNE,25,6.0,11.0,81,0.00,,CLR,0.00,VWS V14.01,2013-03-01 12:40:00,
2013-03-01 06:44:00,18.1,13.5,30.44,NNE,32,5.0,5.0,82,0.00,,OVC023,0.00,VWS V14.01,2013-03-01 12:44:00,
2013-03-01 06:45:00,19.2,14.3,30.46,NNE,19,5.0,10.0,81,0.00,,CLR,0.00,VWS V14.01,2013-03-01 12:45:00,
2013-03-01 06:49:00,18.1,13.5,30.44,NNE,25,5.0,6.0,82,0.00,,OVC023,0.00,VWS V14.01,2013-03-01 12:49:00,
2013-03-01 06:50:00,19.3,14.4,30.46,NNE,32,7.0,10.0,81,0.00,,CLR,0.00,VWS V14.01,2013-03-01 12:50:00,
2013-03-01 06:54:00,18.1,13.5,30.44,NNE,28,6.0,7.0,82,0.00,,OVC023,0.00,VWS V14.01,2013-03-01 12:54:00,
2013-03-01 06:55:00,19.4,14.2,30.46,NNE,26,9.0,10.0,80,0.00,,CLR,0.00,VWS V14.01,2013-03-01 12:55:00,
2013-03-01 06:59:00,18.2,13.6,30.44,NE,36,3.0,6.0,82,0.00,,OVC023,0.00,VWS V14.01,2013-03-01 12:59:00,
2013-03-01 07:00:00,19.5,14.4,30.46,NNE,27,7.0,10.0,80,0.00,,CLR,0.00,VWS V14.01,2013-03-01 13:00:00,
2013-03-01 07:04:00,18.2,13.4,30.45,NNE,24,5.0,6.0,81,0.00,,OVC023,0.00,VWS V14.01,2013-03-01 13:04:00,
2013-03-01 07:05:00,19.5,14.4,30.46,NNE,28,5.0,9.0,80,0.00,,CLR,0.00,VWS V14.01,2013-03-01 13:05:00,
2013-03-01 07:10:00,18.3,13.5,30.45,NNE,26,4.0,6.0,81,0.00,,OVC023,0.00,VWS V14.01,2013-03-01 13:10:00,
2013-03-01 07:15:00,18.3,13.7,30.45,NNE,28,7.0,7.0,82,0.00,,OVC023,0.00,VWS V14.01,2013-03-01 13:15:00,
2013-03-01 07:20:00,18.4,13.8,30.45,NNE,28,5.0,7.0,82,0.00,,OVC023,0.00,VWS V14.01,2013-03-01 13:20:00,
2013-03-01 07:25:00,18.4,13.8,30.46,NNE,24,6.0,8.0,82,0.00,,OVC023,0.00,VWS V14.01,2013-03-01 13:25:00,
2013-03-01 07:30:00,18.5,13.9,30.46,NNE,24,10.0,10.0,82,0.00,,OVC023,0.00,VWS V14.01,2013-03-01 13:30:00,
2013-03-01 07:35:00,18.7,14.1,30.46,NNE,24,9.0,10.0,82,0.00,,OVC023,0.00,VWS V14.01,2013-03-01 13:35:00,
2013-03-01 07:40:00,18.9,14.0,30.46,NNE,29,9.0,11.0,81,0.00,,OVC023,0.00,VWS V14.01,2013-03-01 13:40:00,
2013-03-01 07:45:00,19.1,14.2,30.46,NE,41,6.0,10.0,81,0.00,,OVC023,0.00,VWS V14.01,2013-03-01 13:45:00,
2013-03-01 07:50:00,19.3,14.4,30.46,NNE,22,9.0,10.0,81,0.00,,OVC023,0.00,VWS V14.01,2013-03-01 13:50:00,
2013-03-01 07:55:00,19.4,14.5,30.46,NNE,24,8.0,9.0,81,0.00,,OVC023,0.00,VWS V14.01,2013-03-01 13:55:00,
2013-03-01 08:00:00,19.5,14.4,30.45,NNE,24,6.0,10.0,80,0.00,,OVC023,0.00,VWS V14.01,2013-03-01 14:00:00,
2013-03-01 08:05:00,20.8,15.0,30.46,NNE,12,8.0,10.0,78,0.00,,CLR,0.00,VWS V14.01,2013-03-01 14:05:00,
2013-03-01 08:06:00,19.5,14.4,30.46,NE,40,7.0,9.0,80,0.00,,OVC023,0.00,VWS V14.01,2013-03-01 14:06:00,
2013-03-01 08:10:00,21.1,15.3,30.46,ENE,73,3.0,13.0,78,0.00,,CLR,0.00,VWS V14.01,2013-03-01 14:10:00,
2013-03-01 08:11:00,19.6,14.4,30.46,NNE,29,6.0,9.0,80,0.00,,OVC023,0.00,VWS V14.01,2013-03-01 14:11:00,
2013-03-01 08:15:00,21.3,15.2,30.46,NE,34,7.0,10.0,77,0.00,,CLR,0.00,VWS V14.01,2013-03-01 14:15:00,
2013-03-01 08:16:00,19.7,14.5,30.46,NE,35,7.0,7.0,80,0.00,,OVC023,0.00,VWS V14.01,2013-03-01 14:16:00,
2013-03-01 08:20:00,21.2,14.8,30.47,NNE,32,9.0,13.0,76,0.00,,CLR,0.00,VWS V14.01,2013-03-01 14:20:00,
2013-03-01 08:21:00,19.7,14.5,30.46,NNE,26,5.0,9.0,80,0.00,,OVC023,0.00,VWS V14.01,2013-03-01 14:21:00,
2013-03-01 08:25:00,21.1,14.7,30.47,NE,44,10.0,13.0,76,0.00,,CLR,0.00,VWS V14.01,2013-03-01 14:25:00,
2013-03-01 08:26:00,19.8,14.6,30.46,NE,42,8.0,9.0,80,0.00,,OVC023,0.00,VWS V14.01,2013-03-01 14:26:00,
2013-03-01 08:30:00,21.1,15.0,30.47,NE,41,5.0,10.0,77,0.00,,CLR,0.00,VWS V14.01,2013-03-01 14:30:00,
2013-03-01 08:31:00,20.0,14.6,30.46,NNE,25,5.0,7.0,79,0.00,,OVC023,0.00,VWS V14.01,2013-03-01 14:31:00,
2013-03-01 08:35:00,21.1,14.7,30.47,NE,51,5.0,12.0,76,0.00,,CLR,0.00,VWS V14.01,2013-03-01 14:35:00,
2013-03-01 08:36:00,20.2,14.4,30.46,NNE,31,5.0,9.0,78,0.00,,OVC023,0.00,VWS V14.01,2013-03-01 14:36:00,
2013-03-01 08:40:00,21.1,14.7,30.47,NE,40,3.0,11.0,76,0.00,,CLR,0.00,VWS V14.01,2013-03-01 14:40:00,
2013-03-01 08:41:00,20.3,14.6,30.46,NE,36,5.0,9.0,78,0.00,,OVC023,0.00,VWS V14.01,2013-03-01 14:41:00,
2013-03-01 08:45:00,21.1,15.0,30.47,NNE,26,6.0,12.0,77,0.00,,CLR,0.00,VWS V14.01,2013-03-01 14:45:00,
2013-03-01 08:46:00,20.4,14.6,30.46,NNE,29,8.0,9.0,78,0.00,,OVC023,0.00,VWS V14.01,2013-03-01 14:46:00,
2013-03-01 08:50:00,21.0,14.9,30.48,NE,44,7.0,12.0,77,0.00,,CLR,0.00,VWS V14.01,2013-03-01 14:50:00,
2013-03-01 08:51:00,20.5,14.7,30.46,NE,34,9.0,12.0,78,0.00,,OVC023,0.00,VWS V14.01,2013-03-01 14:51:00,
2013-03-01 08:55:00,21.0,14.6,30.47,NE,40,11.0,12.0,76,0.00,,CLR,0.00,VWS V14.01,2013-03-01 14:55:00,
2013-03-01 08:56:00,20.6,14.8,30.46,North,10,8.0,10.0,78,0.00,,OVC023,0.00,VWS V14.01,2013-03-01 14:56:00,
2013-03-01 09:00:00,21.1,15.0,30.47,NNE,28,7.0,13.0,77,0.00,,CLR,0.00,VWS V14.01,2013-03-01 15:00:00,
2013-03-01 09:01:00,20.6,14.8,30.46,NNE,32,8.0,10.0,78,0.00,,OVC023,0.00,VWS V14.01,2013-03-01 15:01:00,
2013-03-01 09:05:00,21.2,15.1,30.47,NE,40,9.0,14.0,77,0.00,,CLR,0.00,VWS V14.01,2013-03-01 15:05:00,
2013-03-01 09:07:00,20.8,15.0,30.47,NE,38,6.0,10.0,78,0.00,,OVC023,0.00,VWS V14.01,2013-03-01 15:07:00,
2013-03-01 09:10:00,21.3,14.9,30.47,NNE,31,7.0,12.0,76,0.00,,CLR,0.00,VWS V14.01,2013-03-01 15:10:00,
2013-03-01 09:12:00,21.0,15.2,30.46,NE,38,6.0,13.0,78,0.00,,OVC023,0.00,VWS V14.01,2013-03-01 15:12:00,
2013-03-01 09:15:00,21.5,15.1,30.47,NNE,28,10.0,12.0,76,0.00,,CLR,0.00,VWS V14.01,2013-03-01 15:15:00,
2013-03-01 09:17:00,21.2,15.1,30.46,NNE,30,8.0,10.0,77,0.00,,OVC023,0.00,VWS V14.01,2013-03-01 15:17:00,
2013-03-01 09:20:00,21.5,15.1,30.47,ENE,65,7.0,11.0,76,0.00,,CLR,0.00,VWS V14.01,2013-03-01 15:20:00,
2013-03-01 09:22:00,21.2,14.8,30.47,NE,47,4.0,13.0,76,0.00,,OVC023,0.00,VWS V14.01,2013-03-01 15:22:00,
2013-03-01 09:25:00,21.8,15.4,30.47,NE,35,4.0,10.0,76,0.00,,CLR,0.00,VWS V14.01,2013-03-01 15:25:00,
2013-03-01 09:27:00,21.1,14.7,30.47,NNE,15,13.0,13.0,76,0.00,,OVC023,0.00,VWS V14.01,2013-03-01 15:27:00,
2013-03-01 09:30:00,21.9,15.5,30.47,NNE,16,9.0,13.0,76,0.00,,CLR,0.00,VWS V14.01,2013-03-01 15:30:00,
2013-03-01 09:32:00,21.1,15.0,30.47,NE,56,3.0,10.0,77,0.00,,OVC023,0.00,VWS V14.01,2013-03-01 15:32:00,
2013-03-01 09:35:00,22.1,15.7,30.47,NNE,32,6.0,12.0,76,0.00,,CLR,0.00,VWS V14.01,2013-03-01 15:35:00,
2013-03-01 09:37:00,21.1,14.7,30.47,NE,36,7.0,12.0,76,0.00,,OVC021,0.00,VWS V14.01,2013-03-01 15:37:00,
2013-03-01 09:40:00,22.2,15.5,30.47,NNE,23,9.0,10.0,75,0.00,,CLR,0.00,VWS V14.01,2013-03-01 15:40:00,
2013-03-01 09:42:00,21.1,14.7,30.47,NNE,30,4.0,11.0,76,0.00,,OVC021,0.00,VWS V14.01,2013-03-01 15:42:00,
2013-03-01 09:45:00,22.4,16.0,30.47,North,9,9.0,12.0,76,0.00,,CLR,0.00,VWS V14.01,2013-03-01 15:45:00,
2013-03-01 09:47:00,21.1,15.0,30.47,NNE,19,10.0,12.0,77,0.00,,OVC021,0.00,VWS V14.01,2013-03-01 15:47:00,
2013-03-01 09:50:00,22.8,16.4,30.47,NNE,28,5.0,10.0,76,0.00,,CLR,0.00,VWS V14.01,2013-03-01 15:50:00,
2013-03-01 09:52:00,21.0,14.6,30.48,NNE,29,9.0,12.0,76,0.00,,OVC021,0.00,VWS V14.01,2013-03-01 15:52:00,
2013-03-01 09:55:00,23.0,16.6,30.47,NNW,343,8.0,10.0,76,0.00,,CLR,0.00,VWS V14.01,2013-03-01 15:55:00,
2013-03-01 09:57:00,21.0,14.9,30.47,NE,43,4.0,12.0,77,0.00,,OVC021,0.00,VWS V14.01,2013-03-01 15:57:00,
2013-03-01 10:00:00,23.4,17.0,30.47,North,360,11.0,11.0,76,0.00,,CLR,0.00,VWS V14.01,2013-03-01 16:00:00,
2013-03-01 10:02:00,21.1,15.0,30.48,NNE,28,6.0,13.0,77,0.00,,OVC021,0.00,VWS V14.01,2013-03-01 16:02:00,
2013-03-01 10:05:00,23.3,16.6,30.47,NNW,340,9.0,12.0,75,0.00,,CLR,0.00,VWS V14.01,2013-03-01 16:05:00,
2013-03-01 10:07:00,21.2,15.1,30.47,NE,40,9.0,14.0,77,0.00,,OVC021,0.00,VWS V14.01,2013-03-01 16:07:00,
2013-03-01 10:10:00,23.5,16.8,30.47,North,355,10.0,12.0,75,0.00,,CLR,0.00,VWS V14.01,2013-03-01 16:10:00,
2013-03-01 10:13:00,21.3,14.9,30.47,NNE,31,8.0,12.0,76,0.00,,OVC021,0.00,VWS V14.01,2013-03-01 16:13:00,
2013-03-01 10:15:00,23.6,17.2,30.47,NNE,17,9.0,13.0,76,0.00,,CLR,0.00,VWS V14.01,2013-03-01 16:15:00,
2013-03-01 10:18:00,21.5,15.1,30.47,NNE,15,7.0,12.0,76,0.00,,OVC021,0.00,VWS V14.01,2013-03-01 16:18:00,
2013-03-01 10:20:00,23.4,17.0,30.47,North,360,6.0,12.0,76,0.00,,CLR,0.00,VWS V14.01,2013-03-01 16:20:00,
2013-03-01 10:23:00,21.5,15.1,30.47,NE,43,8.0,11.0,76,0.00,,OVC021,0.00,VWS V14.01,2013-03-01 16:23:00,
2013-03-01 10:25:00,23.5,17.1,30.47,NNE,12,8.0,10.0,76,0.00,,CLR,0.00,VWS V14.01,2013-03-01 16:25:00,
2013-03-01 10:28:00,21.8,15.4,30.47,NE,36,6.0,10.0,76,0.00,,OVC021,0.00,VWS V14.01,2013-03-01 16:28:00,
2013-03-01 10:30:00,23.6,17.2,30.47,North,355,9.0,12.0,76,0.00,,CLR,0.00,VWS V14.01,2013-03-01 16:30:00,
2013-03-01 10:33:00,21.9,15.5,30.47,NNE,24,10.0,13.0,76,0.00,,OVC021,0.00,VWS V14.01,2013-03-01 16:33:00,
2013-03-01 10:35:00,23.6,17.2,30.47,North,10,10.0,11.0,76,0.00,,CLR,0.00,VWS V14.01,2013-03-01 16:35:00,
2013-03-01 10:38:00,22.1,15.7,30.47,NNE,32,6.0,12.0,76,0.00,,OVC021,0.00,VWS V14.01,2013-03-01 16:38:00,
2013-03-01 10:40:00,23.7,17.0,30.47,NNE,13,6.0,13.0,75,0.00,,CLR,0.00,VWS V14.01,2013-03-01 16:40:00,
2013-03-01 10:43:00,22.2,15.5,30.47,NNE,23,9.0,10.0,75,0.00,,OVC021,0.00,VWS V14.01,2013-03-01 16:43:00,
2013-03-01 10:45:00,24.0,17.2,30.47,NNW,344,7.0,11.0,75,0.00,,CLR,0.00,VWS V14.01,2013-03-01 16:45:00,
2013-03-01 10:48:00,22.4,16.0,30.47,North,9,9.0,12.0,76,0.00,,OVC021,0.00,VWS V14.01,2013-03-01 16:48:00,
2013-03-01 10:50:00,24.1,16.7,30.47,NNW,337,10.0,11.0,73,0.00,,CLR,0.00,VWS V14.01,2013-03-01 16:50:00,
2013-03-01 10:53:00,22.8,16.4,30.47,NNE,28,5.0,10.0,76,0.00,,OVC021,0.00,VWS V14.01,2013-03-01 16:53:00,
2013-03-01 10:55:00,24.0,16.3,30.47,NNW,336,12.0,12.0,72,0.00,,CLR,0.00,VWS V14.01,2013-03-01 16:55:00,
2013-03-01 10:58:00,23.0,16.6,30.47,NNW,343,8.0,10.0,76,0.00,,OVC021,0.00,VWS V14.01,2013-03-01 16:58:00,
2013-03-01 11:00:00,23.9,16.8,30.48,North,5,4.0,13.0,74,0.00,,CLR,0.00,VWS V14.01,2013-03-01 17:00:00,
2013-03-01 11:03:00,23.4,17.0,30.47,North,360,11.0,11.0,76,0.00,,OVC021,0.00,VWS V14.01,2013-03-01 17:03:00,
2013-03-01 11:05:00,24.1,16.7,30.47,NNE,28,8.0,13.0,73,0.00,,CLR,0.00,VWS V14.01,2013-03-01 17:05:00,
2013-03-01 11:08:00,23.3,16.6,30.47,NNW,340,9.0,12.0,75,0.00,,OVC021,0.00,VWS V14.01,2013-03-01 17:08:00,
2013-03-01 11:10:00,23.9,17.1,30.47,North,355,9.0,13.0,75,0.00,,CLR,0.00,VWS V14.01,2013-03-01 17:10:00,
2013-03-01 11:14:00,23.5,16.8,30.47,North,5,11.0,11.0,75,0.00,,OVC021,0.00,VWS V14.01,2013-03-01 17:14:00,
2013-03-01 11:15:00,24.5,17.4,30.47,North,360,9.0,10.0,74,0.00,,CLR,0.00,VWS V14.01,2013-03-01 17:15:00,
2013-03-01 11:19:00,23.5,16.8,30.47,North,355,11.0,12.0,75,0.00,,OVC021,0.00,VWS V14.01,2013-03-01 17:19:00,
2013-03-01 11:20:00,24.7,17.6,30.47,NNW,334,5.0,12.0,74,0.00,,CLR,0.00,VWS V14.01,2013-03-01 17:20:00,
2013-03-01 11:24:00,23.4,16.7,30.47,North,10,7.0,10.0,75,0.00,,OVC021,0.00,VWS V14.01,2013-03-01 17:24:00,
2013-03-01 11:25:00,24.9,17.2,30.47,NNE,17,6.0,12.0,72,0.00,,CLR,0.00,VWS V14.01,2013-03-01 17:25:00,
2013-03-01 11:29:00,23.6,17.2,30.47,NNE,33,6.0,9.0,76,0.00,,OVC021,0.00,VWS V14.01,2013-03-01 17:29:00,
2013-03-01 11:30:00,24.7,17.3,30.47,North,349,6.0,11.0,73,0.00,,CLR,0.00,VWS V14.01,2013-03-01 17:30:00,
2013-03-01 11:34:00,23.7,17.3,30.47,North,9,6.0,10.0,76,0.00,,OVC021,0.00,VWS V14.01,2013-03-01 17:34:00,
2013-03-01 11:35:00,24.5,17.1,30.47,NNE,29,6.0,11.0,73,0.00,,CLR,0.00,VWS V14.01,2013-03-01 17:35:00,
2013-03-01 11:39:00,23.6,17.2,30.47,North,350,9.0,11.0,76,0.00,,OVC021,0.00,VWS V14.01,2013-03-01 17:39:00,
2013-03-01 11:40:00,24.5,17.1,30.47,North,349,7.0,10.0,73,0.00,,CLR,0.00,VWS V14.01,2013-03-01 17:40:00,
2013-03-01 11:44:00,23.8,17.4,30.47,North,360,7.0,7.0,76,0.00,,OVC021,0.00,VWS V14.01,2013-03-01 17:44:00,
2013-03-01 11:45:00,24.8,17.4,30.46,NNW,337,9.0,13.0,73,0.00,,CLR,0.00,VWS V14.01,2013-03-01 17:45:00,
2013-03-01 11:49:00,24.1,17.0,30.47,NW,323,7.0,9.0,74,0.00,,OVC021,0.00,VWS V14.01,2013-03-01 17:49:00,
2013-03-01 11:50:00,24.9,17.5,30.46,North,360,11.0,13.0,73,0.00,,CLR,0.00,VWS V14.01,2013-03-01 17:50:00,
2013-03-01 11:54:00,24.0,16.6,30.47,North,349,8.0,11.0,73,0.00,,OVC021,0.00,VWS V14.01,2013-03-01 17:54:00,
2013-03-01 11:55:00,24.9,17.2,30.46,North,10,9.0,13.0,72,0.00,,CLR,0.00,VWS V14.01,2013-03-01 17:55:00,
2013-03-01 11:59:00,23.9,16.5,30.47,NNW,342,10.0,13.0,73,0.00,,OVC021,0.00,VWS V14.01,2013-03-01 17:59:00,
2013-03-01 12:00:00,24.9,17.2,30.46,North,349,6.0,9.0,72,0.00,,CLR,0.00,VWS V14.01,2013-03-01 18:00:00,
2013-03-01 12:05:00,24.1,16.7,30.48,North,5,13.0,13.0,73,0.00,,OVC021,0.00,VWS V14.01,2013-03-01 18:05:00,
2013-03-01 12:10:00,24.0,16.9,30.47,NE,42,9.0,13.0,74,0.00,,OVC021,0.00,VWS V14.01,2013-03-01 18:10:00,
2013-03-01 12:15:00,24.1,17.3,30.48,North,355,9.0,10.0,75,0.00,,OVC021,0.00,VWS V14.01,2013-03-01 18:15:00,
2013-03-01 12:20:00,24.6,17.5,30.47,North,5,10.0,12.0,74,0.00,,OVC021,0.00,VWS V14.01,2013-03-01 18:20:00,
2013-03-01 12:25:00,24.9,17.2,30.47,NNW,334,5.0,7.0,72,0.00,,OVC021,0.00,VWS V14.01,2013-03-01 18:25:00,
2013-03-01 12:30:00,24.9,17.5,30.47,North,5,9.0,11.0,73,0.00,,OVC021,0.00,VWS V14.01,2013-03-01 18:30:00,
2013-03-01 12:35:00,24.8,17.7,30.47,NNE,28,8.0,8.0,74,0.00,,OVC023,0.00,VWS V14.01,2013-03-01 18:35:00,
2013-03-01 12:40:00,24.4,16.7,30.47,NNE,26,5.0,7.0,72,0.00,,OVC023,0.00,VWS V14.01,2013-03-01 18:40:00,
2013-03-01 12:45:00,24.7,17.6,30.47,North,360,10.0,13.0,74,0.00,,OVC023,0.00,VWS V14.01,2013-03-01 18:45:00,
2013-03-01 12:50:00,24.9,17.2,30.47,North,360,7.0,13.0,72,0.00,,OVC023,0.00,VWS V14.01,2013-03-01 18:50:00,
2013-03-01 12:55:00,24.9,16.8,30.46,North,355,8.0,13.0,71,0.00,,OVC023,0.00,VWS V14.01,2013-03-01 18:55:00,
2013-03-01 13:00:00,24.7,17.0,30.46,North,355,5.0,9.0,72,0.00,,OVC023,0.00,VWS V14.01,2013-03-01 19:00:00,
2013-03-01 13:05:00,25.0,16.6,30.46,NNW,348,8.0,11.0,70,0.00,,OVC023,0.00,VWS V14.01,2013-03-01 19:05:00,
2013-03-01 13:10:00,25.1,17.0,30.46,NNE,15,4.0,11.0,71,0.00,,OVC023,0.00,VWS V14.01,2013-03-01 19:10:00,
2013-03-01 13:15:00,25.2,17.8,30.46,North,355,7.0,7.0,73,0.00,,OVC023,0.00,VWS V14.01,2013-03-01 19:15:00,
2013-03-01 13:20:00,26.2,18.1,30.46,North,360,9.0,13.0,71,0.00,,OVC023,0.00,VWS V14.01,2013-03-01 19:20:00,
2013-03-01 13:26:00,26.5,18.0,30.46,North,360,9.0,9.0,70,0.00,,OVC023,0.00,VWS V14.01,2013-03-01 19:26:00,
2013-03-01 13:31:00,25.8,17.4,30.46,North,360,11.0,14.0,70,0.00,,OVC023,0.00,VWS V14.01,2013-03-01 19:31:00,
2013-03-01 13:36:00,25.6,17.5,30.45,North,11,10.0,11.0,71,0.00,,OVC025,0.00,VWS V14.01,2013-03-01 19:36:00,
2013-03-01 13:41:00,25.1,17.4,30.45,North,360,6.0,12.0,72,0.00,,OVC025,0.00,VWS V14.01,2013-03-01 19:41:00,
2013-03-01 13:46:00,25.6,17.5,30.45,North,360,11.0,11.0,71,0.00,,OVC025,0.00,VWS V14.01,2013-03-01 19:46:00,
2013-03-01 13:51:00,26.1,18.0,30.45,North,360,10.0,12.0,71,0.00,,OVC025,0.00,VWS V14.01,2013-03-01 19:51:00,
2013-03-01 13:56:00,25.8,18.0,30.45,North,355,5.0,10.0,72,0.00,,OVC025,0.00,VWS V14.01,2013-03-01 19:56:00,
2013-03-01 14:01:00,25.9,17.5,30.45,NNW,348,10.0,12.0,70,0.00,,OVC025,0.00,VWS V14.01,2013-03-01 20:01:00,
2013-03-01 14:06:00,26.0,17.6,30.45,NNW,348,9.0,12.0,70,0.00,,OVC025,0.00,VWS V14.01,2013-03-01 20:06:00,
2013-03-01 14:11:00,26.2,17.8,30.45,North,5,7.0,11.0,70,0.00,,OVC025,0.00,VWS V14.01,2013-03-01 20:11:00,
2013-03-01 16:15:00,23.8,15.5,30.45,North,360,9.0,9.0,70,0.00,,CLR,0.00,VWS V14.01,2013-03-01 22:15:00,
2013-03-01 16:20:00,23.6,15.3,30.45,North,355,9.0,11.0,70,0.00,,CLR,0.00,VWS V14.01,2013-03-01 22:20:00,
2013-03-01 16:25:00,23.3,15.0,30.45,North,360,9.0,11.0,70,0.00,,CLR,0.00,VWS V14.01,2013-03-01 22:25:00,
2013-03-01 16:30:00,23.0,15.0,30.45,North,11,8.0,12.0,71,0.00,,CLR,0.00,VWS V14.01,2013-03-01 22:30:00,
2013-03-01 16:35:00,22.6,14.6,30.46,North,360,7.0,10.0,71,0.00,,CLR,0.00,VWS V14.01,2013-03-01 22:35:00,
2013-03-01 16:40:00,22.3,14.3,30.46,North,9,9.0,10.0,71,0.00,,CLR,0.00,VWS V14.01,2013-03-01 22:40:00,
2013-03-01 16:45:00,22.2,14.2,30.46,North,5,7.0,11.0,71,0.00,,CLR,0.00,VWS V14.01,2013-03-01 22:45:00,
2013-03-01 16:50:00,21.8,13.9,30.46,North,9,9.0,10.0,71,0.00,,CLR,0.00,VWS V14.01,2013-03-01 22:50:00,
2013-03-01 16:55:00,21.4,13.5,30.46,NNE,13,6.0,10.0,71,0.00,,CLR,0.00,VWS V14.01,2013-03-01 22:55:00,
2013-03-01 17:00:00,20.9,13.0,30.47,North,9,5.0,9.0,71,0.00,,CLR,0.00,VWS V14.01,2013-03-01 23:00:00,
2013-03-01 17:05:00,20.1,12.2,30.47,NNE,13,5.0,7.0,71,0.00,,CLR,0.00,VWS V14.01,2013-03-01 23:05:00,
2013-03-01 17:10:00,19.1,11.6,30.47,NNE,23,4.0,5.0,72,0.00,,CLR,0.00,VWS V14.01,2013-03-01 23:10:00,
2013-03-01 17:15:00,18.5,11.0,30.48,NNE,17,2.0,5.0,72,0.00,,CLR,0.00,VWS V14.01,2013-03-01 23:15:00,
2013-03-01 17:18:00,23.8,15.5,30.45,North,360,9.0,9.0,70,0.00,,OVC025,0.00,VWS V14.01,2013-03-01 23:18:00,
2013-03-01 17:20:00,18.3,11.4,30.48,NNE,28,0.0,4.0,74,0.00,,CLR,0.00,VWS V14.01,2013-03-01 23:20:00,
2013-03-01 17:23:00,23.6,15.3,30.45,NNW,348,10.0,11.0,70,0.00,,OVC025,0.00,VWS V14.01,2013-03-01 23:23:00,
2013-03-01 17:25:00,18.2,11.3,30.48,NNE,28,0.0,2.0,74,0.00,,CLR,0.00,VWS V14.01,2013-03-01 23:25:00,
2013-03-01 17:29:00,23.3,15.0,30.45,North,5,8.0,9.0,70,0.00,,CLR,0.00,VWS V14.01,2013-03-01 23:29:00,
2013-03-01 17:30:00,18.2,11.6,30.48,NNE,28,0.0,2.0,75,0.00,,CLR,0.00,VWS V14.01,2013-03-01 23:30:00,
2013-03-01 17:34:00,22.9,16.8,30.46,North,9,9.0,9.0,77,0.00,,CLR,0.00,VWS V14.01,2013-03-01 23:34:00,
2013-03-01 17:35:00,18.7,12.1,30.48,NNE,28,0.0,0.0,75,0.00,,CLR,0.00,VWS V14.01,2013-03-01 23:35:00,
2013-03-01 17:39:00,22.5,14.5,30.46,North,360,9.0,10.0,71,0.00,,CLR,0.00,VWS V14.01,2013-03-01 23:39:00,
2013-03-01 17:40:00,18.9,12.0,30.48,NNE,28,0.0,0.0,74,0.00,,CLR,0.00,VWS V14.01,2013-03-01 23:40:00,
2013-03-01 17:44:00,22.3,14.3,30.46,NNE,18,10.0,10.0,71,0.00,,CLR,0.00,VWS V14.01,2013-03-01 23:44:00,
2013-03-01 17:45:00,18.9,11.7,30.49,NNE,28,2.0,3.0,73,0.00,,CLR,0.00,VWS V14.01,2013-03-01 23:45:00,
2013-03-01 17:49:00,22.1,14.1,30.46,North,5,9.0,9.0,71,0.00,,CLR,0.00,VWS V14.01,2013-03-01 23:49:00,
2013-03-01 17:50:00,18.9,11.7,30.49,NNE,27,3.0,4.0,73,0.00,,CLR,0.00,VWS V14.01,2013-03-01 23:50:00,
2013-03-01 17:54:00,21.8,13.9,30.46,North,5,8.0,9.0,71,0.00,,CLR,0.00,VWS V14.01,2013-03-01 23:54:00,
2013-03-01 17:55:00,18.4,10.9,30.49,NNE,27,3.0,4.0,72,0.00,,CLR,0.00,VWS V14.01,2013-03-01 23:55:00,
2013-03-01 17:59:00,21.3,13.4,30.47,North,9,6.0,9.0,71,0.00,,CLR,0.00,VWS V14.01,2013-03-01 23:59:00,
2013-03-01 18:00:00,17.7,10.2,30.48,NNE,26,2.0,4.0,72,0.00,,CLR,0.00,VWS V14.01,2013-03-02 00:00:00,
2013-03-01 18:04:00,20.8,12.9,30.47,NNE,13,6.0,7.0,71,0.00,,CLR,0.00,VWS V14.01,2013-03-02 00:04:00,
2013-03-01 18:05:00,17.5,10.3,30.48,NNE,26,3.0,4.0,73,0.00,,CLR,0.00,VWS V14.01,2013-03-02 00:05:00,
2013-03-01 18:09:00,19.7,11.8,30.47,NNE,13,4.0,5.0,71,0.00,,CLR,0.00,VWS V14.01,2013-03-02 00:09:00,
2013-03-01 18:10:00,17.5,10.6,30.48,NNE,26,3.0,4.0,74,0.00,,CLR,0.00,VWS V14.01,2013-03-02 00:10:00,
2013-03-01 18:14:00,18.9,11.4,30.47,NNE,23,3.0,5.0,72,0.00,,CLR,0.00,VWS V14.01,2013-03-02 00:14:00,
2013-03-01 18:15:00,17.5,10.6,30.48,NNE,26,3.0,4.0,74,0.00,,CLR,0.00,VWS V14.01,2013-03-02 00:15:00,
2013-03-01 18:19:00,18.4,11.2,30.48,NNE,28,2.0,4.0,73,0.00,,CLR,0.00,VWS V14.01,2013-03-02 00:19:00,
2013-03-01 18:20:00,17.5,10.3,30.48,NNE,26,3.0,4.0,73,0.00,,CLR,0.00,VWS V14.01,2013-03-02 00:20:00,
2013-03-01 18:24:00,18.3,11.4,30.48,NNE,28,1.0,2.0,74,0.00,,CLR,0.00,VWS V14.01,2013-03-02 00:24:00,
2013-03-01 18:25:00,17.3,10.1,30.49,NNE,26,4.0,4.0,73,0.00,,CLR,0.00,VWS V14.01,2013-03-02 00:25:00,
2013-03-01 18:30:00,18.2,11.3,30.48,NNE,28,0.0,0.0,74,0.00,,CLR,0.00,VWS V14.01,2013-03-02 00:30:00,
2013-03-01 18:35:00,18.3,11.7,30.48,NNE,28,0.0,0.0,75,0.00,,CLR,0.00,VWS V14.01,2013-03-02 00:35:00,
2013-03-01 18:40:00,18.8,11.9,30.48,NNE,28,0.0,0.0,74,0.00,,CLR,0.00,VWS V14.01,2013-03-02 00:40:00,
2013-03-01 18:45:00,18.9,12.0,30.49,NNE,28,0.0,0.0,74,0.00,,CLR,0.00,VWS V14.01,2013-03-02 00:45:00,
2013-03-01 18:50:00,18.9,11.7,30.49,NNE,28,3.0,3.0,73,0.00,,CLR,0.00,VWS V14.01,2013-03-02 00:50:00,
2013-03-01 18:55:00,18.8,11.3,30.48,NNE,27,3.0,3.0,72,0.00,,CLR,0.00,VWS V14.01,2013-03-02 00:55:00,
2013-03-01 19:00:00,18.2,10.7,30.49,NNE,27,3.0,4.0,72,0.00,,CLR,0.00,VWS V14.01,2013-03-02 01:00:00,
2013-03-01 19:05:00,17.6,10.1,30.48,NNE,26,3.0,3.0,72,0.00,,CLR,0.00,VWS V14.01,2013-03-02 01:05:00,
2013-03-01 19:10:00,17.5,10.3,30.48,NNE,26,3.0,4.0,73,0.00,,CLR,0.00,VWS V14.01,2013-03-02 01:10:00,
2013-03-01 19:15:00,17.5,10.6,30.48,NNE,26,3.0,4.0,74,0.00,,CLR,0.00,VWS V14.01,2013-03-02 01:15:00,
2013-03-01 19:20:00,17.5,10.6,30.48,NNE,26,3.0,4.0,74,0.00,,CLR,0.00,VWS V14.01,2013-03-02 01:20:00,
2013-03-01 19:25:00,17.4,10.2,30.49,NNE,26,4.0,4.0,73,0.00,,CLR,0.00,VWS V14.01,2013-03-02 01:25:00,
2013-03-01 19:30:00,17.2,10.1,30.48,NNE,32,4.0,5.0,73,0.00,,CLR,0.00,VWS V14.01,2013-03-02 01:30:00,
2013-03-01 19:35:00,17.1,10.3,30.48,NNE,15,2.0,2.0,74,0.00,,CLR,0.00,VWS V14.01,2013-03-02 01:35:00,
2013-03-01 19:36:00,17.2,10.1,30.49,NNE,32,5.0,6.0,73,0.00,,CLR,0.00,VWS V14.01,2013-03-02 01:36:00,
2013-03-01 19:40:00,17.0,9.2,30.48,NNE,16,2.0,3.0,71,0.00,,CLR,0.00,VWS V14.01,2013-03-02 01:40:00,
2013-03-01 19:41:00,17.1,9.9,30.48,NNE,28,4.0,5.0,73,0.00,,CLR,0.00,VWS V14.01,2013-03-02 01:41:00,
2013-03-01 19:45:00,16.4,8.3,30.48,NE,44,4.0,5.0,70,0.00,,CLR,0.00,VWS V14.01,2013-03-02 01:45:00,
2013-03-01 19:46:00,16.8,9.4,30.48,NNE,30,4.0,5.0,72,0.00,,CLR,0.00,VWS V14.01,2013-03-02 01:46:00,
2013-03-01 19:50:00,15.8,7.4,30.48,NE,34,5.0,5.0,69,0.00,,CLR,0.00,VWS V14.01,2013-03-02 01:50:00,
2013-03-01 19:51:00,16.6,9.5,30.49,NE,35,3.0,5.0,73,0.00,,CLR,0.00,VWS V14.01,2013-03-02 01:51:00,
2013-03-01 19:55:00,15.2,6.6,30.48,NNE,28,4.0,5.0,68,0.00,,CLR,0.00,VWS V14.01,2013-03-02 01:55:00,
2013-03-01 19:56:00,16.5,9.4,30.49,NE,35,3.0,4.0,73,0.00,,CLR,0.00,VWS V14.01,2013-03-02 01:56:00,
2013-03-01 20:00:00,14.6,5.7,30.49,NNE,14,5.0,6.0,67,0.00,,CLR,0.00,VWS V14.01,2013-03-02 02:00:00,
2013-03-01 20:01:00,16.4,9.6,30.49,NE,35,2.0,4.0,74,0.00,,CLR,0.00,VWS V14.01,2013-03-02 02:01:00,
2013-03-01 20:05:00,14.3,6.0,30.49,NNE,14,2.0,5.0,69,0.00,,CLR,0.00,VWS V14.01,2013-03-02 02:05:00,
2013-03-01 20:06:00,16.3,9.5,30.48,NE,35,3.0,3.0,74,0.00,,CLR,0.00,VWS V14.01,2013-03-02 02:06:00,
2013-03-01 20:10:00,14.2,5.6,30.49,NNE,14,2.0,3.0,68,0.00,,CLR,0.00,VWS V14.01,2013-03-02 02:10:00,
2013-03-01 20:11:00,16.2,9.4,30.48,NE,42,0.0,3.0,74,0.00,,CLR,0.00,VWS V14.01,2013-03-02 02:11:00,
2013-03-01 20:15:00,13.8,5.2,30.49,NNE,14,2.0,3.0,68,0.00,,CLR,0.00,VWS V14.01,2013-03-02 02:15:00,
2013-03-01 20:16:00,16.0,9.2,30.48,NE,42,1.0,2.0,74,0.00,,CLR,0.00,VWS V14.01,2013-03-02 02:16:00,
2013-03-01 20:20:00,13.5,4.9,30.49,NNE,14,1.0,4.0,68,0.00,,CLR,0.00,VWS V14.01,2013-03-02 02:20:00,
2013-03-01 20:21:00,15.9,9.1,30.48,NE,42,1.0,3.0,74,0.00,,CLR,0.00,VWS V14.01,2013-03-02 02:21:00,
2013-03-01 20:25:00,13.2,4.9,30.49,NNE,14,1.0,3.0,69,0.00,,CLR,0.00,VWS V14.01,2013-03-02 02:25:00,
2013-03-01 20:26:00,16.2,9.7,30.48,NE,42,2.0,3.0,75,0.00,,CLR,0.00,VWS V14.01,2013-03-02 02:26:00,
2013-03-01 20:30:00,13.0,5.1,30.49,NNE,14,1.0,2.0,70,0.00,,CLR,0.00,VWS V14.01,2013-03-02 02:30:00,
2013-03-01 20:31:00,16.7,10.2,30.48,NNE,16,1.0,2.0,75,0.00,,CLR,0.00,VWS V14.01,2013-03-02 02:31:00,
2013-03-01 20:35:00,12.8,5.2,30.49,NNE,14,0.0,1.0,71,0.00,,CLR,0.00,VWS V14.01,2013-03-02 02:35:00,
2013-03-01 20:36:00,17.1,10.3,30.48,NNE,16,0.0,1.0,74,0.00,,FEW100,0.00,VWS V14.01,2013-03-02 02:36:00,
2013-03-01 20:40:00,12.6,5.0,30.49,NNE,14,0.0,0.0,71,0.00,,CLR,0.00,VWS V14.01,2013-03-02 02:40:00,
2013-03-01 20:41:00,17.1,9.6,30.48,NNE,15,3.0,3.0,72,0.00,,FEW100,0.00,VWS V14.01,2013-03-02 02:41:00,
2013-03-01 20:45:00,12.3,4.7,30.49,NNE,14,0.0,0.0,71,0.00,,CLR,0.00,VWS V14.01,2013-03-02 02:45:00,
2013-03-01 20:46:00,16.6,10.4,30.48,NNE,27,3.0,3.0,76,0.00,,FEW100,0.00,VWS V14.01,2013-03-02 02:46:00,
2013-03-01 20:50:00,11.8,4.5,30.49,NNE,14,0.0,0.0,72,0.00,,CLR,0.00,VWS V14.01,2013-03-02 02:50:00,
2013-03-01 20:51:00,15.9,7.5,30.48,NNE,33,4.0,5.0,69,0.00,,FEW100,0.00,VWS V14.01,2013-03-02 02:51:00,
2013-03-01 20:55:00,11.5,4.5,30.49,NNE,14,0.0,0.0,73,0.00,,CLR,0.00,VWS V14.01,2013-03-02 02:55:00,
2013-03-01 20:56:00,15.3,6.7,30.48,NE,34,5.0,5.0,68,0.00,,FEW100,0.00,VWS V14.01,2013-03-02 02:56:00,
2013-03-01 21:00:00,11.4,5.0,30.49,NNE,14,0.0,0.0,75,0.00,,CLR,0.00,VWS V14.01,2013-03-02 03:00:00,
2013-03-01 21:02:00,14.8,6.2,30.48,NNE,22,4.0,6.0,68,0.00,,FEW100,0.00,VWS V14.01,2013-03-02 03:02:00,
2013-03-01 21:05:00,11.3,4.9,30.48,NNE,14,0.0,0.0,75,0.00,,CLR,0.00,VWS V14.01,2013-03-02 03:05:00,
2013-03-01 21:07:00,14.4,6.1,30.49,NNE,14,2.0,5.0,69,0.00,,FEW100,0.00,VWS V14.01,2013-03-02 03:07:00,
2013-03-01 21:10:00,11.3,4.9,30.48,NNE,14,0.0,0.0,75,0.00,,CLR,0.00,VWS V14.01,2013-03-02 03:10:00,
2013-03-01 21:12:00,14.3,6.0,30.49,NNE,14,2.0,3.0,69,0.00,,FEW100,0.00,VWS V14.01,2013-03-02 03:12:00,
2013-03-01 21:15:00,11.1,4.7,30.48,NNE,14,0.0,0.0,75,0.00,,CLR,0.00,VWS V14.01,2013-03-02 03:15:00,
2013-03-01 21:17:00,13.9,5.3,30.49,NNE,14,3.0,3.0,68,0.00,,FEW100,0.00,VWS V14.01,2013-03-02 03:17:00,
2013-03-01 21:20:00,10.8,4.2,30.48,NNE,14,0.0,0.0,74,0.00,,CLR,0.00,VWS V14.01,2013-03-02 03:20:00,
2013-03-01 21:22:00,13.6,5.0,30.49,NNE,14,2.0,4.0,68,0.00,,FEW100,0.00,VWS V14.01,2013-03-02 03:22:00,
2013-03-01 21:25:00,10.3,3.7,30.48,NNE,14,0.0,0.0,74,0.00,,CLR,0.00,VWS V14.01,2013-03-02 03:25:00,
2013-03-01 21:27:00,13.2,4.6,30.49,NNE,14,2.0,3.0,68,0.00,,FEW100,0.00,VWS V14.01,2013-03-02 03:27:00,
2013-03-01 21:30:00,9.9,3.6,30.49,NNE,14,0.0,0.0,75,0.00,,CLR,0.00,VWS V14.01,2013-03-02 03:30:00,
2013-03-01 21:32:00,13.0,4.8,30.49,NNE,14,2.0,2.0,69,0.00,,CLR,0.00,VWS V14.01,2013-03-02 03:32:00,
2013-03-01 21:35:00,9.7,3.7,30.48,NNE,14,0.0,0.0,76,0.00,,CLR,0.00,VWS V14.01,2013-03-02 03:35:00,
2013-03-01 21:37:00,12.8,5.2,30.49,NNE,14,0.0,1.0,71,0.00,,CLR,0.00,VWS V14.01,2013-03-02 03:37:00,
2013-03-01 21:40:00,9.4,3.4,30.48,NNE,14,0.0,0.0,76,0.00,,CLR,0.00,VWS V14.01,2013-03-02 03:40:00,
2013-03-01 21:42:00,12.6,5.0,30.49,NNE,14,0.0,0.0,71,0.00,,CLR,0.00,VWS V14.01,2013-03-02 03:42:00,
2013-03-01 21:45:00,9.4,3.7,30.48,NNE,14,0.0,0.0,77,0.00,,CLR,0.00,VWS V14.01,2013-03-02 03:45:00,
2013-03-01 21:47:00,12.3,4.7,30.49,NNE,14,0.0,0.0,71,0.00,,CLR,0.00,VWS V14.01,2013-03-02 03:47:00,
2013-03-01 21:50:00,9.4,3.7,30.48,NNE,14,0.0,0.0,77,0.00,,CLR,0.00,VWS V14.01,2013-03-02 03:50:00,
2013-03-01 21:52:00,11.9,4.6,30.49,NNE,14,0.0,0.0,72,0.00,,CLR,0.00,VWS V14.01,2013-03-02 03:52:00,
2013-03-01 21:55:00,9.3,3.8,30.49,NNE,14,0.0,0.0,78,0.00,,CLR,0.00,VWS V14.01,2013-03-02 03:55:00,
2013-03-01 21:57:00,11.5,4.5,30.49,NNE,14,0.0,0.0,73,0.00,,CLR,0.00,VWS V14.01,2013-03-02 03:57:00,
2013-03-01 22:00:00,9.1,3.4,30.49,NNE,14,0.0,0.0,77,0.00,,CLR,0.00,VWS V14.01,2013-03-02 04:00:00,
2013-03-01 22:02:00,11.4,5.0,30.49,NNE,14,0.0,0.0,75,0.00,,CLR,0.00,VWS V14.01,2013-03-02 04:02:00,
2013-03-01 22:05:00,9.0,3.5,30.49,NNE,14,0.0,0.0,78,0.00,,CLR,0.00,VWS V14.01,2013-03-02 04:05:00,
2013-03-01 22:07:00,11.3,4.9,30.48,NNE,14,0.0,0.0,75,0.00,,CLR,0.00,VWS V14.01,2013-03-02 04:07:00,
2013-03-01 22:10:00,8.7,3.3,30.49,NNE,14,0.0,0.0,78,0.00,,CLR,0.00,VWS V14.01,2013-03-02 04:10:00,
2013-03-01 22:12:00,11.3,4.9,30.48,NNE,14,0.0,0.0,75,0.00,,CLR,0.00,VWS V14.01,2013-03-02 04:12:00,
2013-03-01 22:15:00,8.5,3.1,30.49,NNE,14,0.0,0.0,78,0.00,,CLR,0.00,VWS V14.01,2013-03-02 04:15:00,
2013-03-01 22:17:00,11.2,4.8,30.48,NNE,14,0.0,0.0,75,0.00,,CLR,0.00,VWS V14.01,2013-03-02 04:17:00,
2013-03-01 22:20:00,8.1,2.7,30.49,NNE,14,0.0,0.0,78,0.00,,CLR,0.00,VWS V14.01,2013-03-02 04:20:00,
2013-03-01 22:22:00,10.9,4.2,30.48,NNE,14,0.0,0.0,74,0.00,,CLR,0.00,VWS V14.01,2013-03-02 04:22:00,
2013-03-01 22:25:00,7.7,2.6,30.49,NNE,14,0.0,0.0,79,0.00,,CLR,0.00,VWS V14.01,2013-03-02 04:25:00,
2013-03-01 22:28:00,10.4,3.8,30.48,NNE,14,0.0,0.0,74,0.00,,CLR,0.00,VWS V14.01,2013-03-02 04:28:00,
2013-03-01 22:30:00,7.6,2.5,30.48,NNE,14,0.0,0.0,79,0.00,,CLR,0.00,VWS V14.01,2013-03-02 04:30:00,
2013-03-01 22:33:00,9.9,3.6,30.49,NNE,14,0.0,0.0,75,0.00,,CLR,0.00,VWS V14.01,2013-03-02 04:33:00,
2013-03-01 22:35:00,7.4,2.3,30.48,NNE,14,0.0,0.0,79,0.00,,CLR,0.00,VWS V14.01,2013-03-02 04:35:00,
2013-03-01 22:38:00,9.7,3.7,30.48,NNE,14,0.0,0.0,76,0.00,,CLR,0.00,VWS V14.01,2013-03-02 04:38:00,
2013-03-01 22:40:00,6.6,0.9,30.48,NNE,14,0.0,0.0,77,0.00,,CLR,0.00,VWS V14.01,2013-03-02 04:40:00,
2013-03-01 22:43:00,9.4,3.4,30.48,NNE,14,0.0,0.0,76,0.00,,CLR,0.00,VWS V14.01,2013-03-02 04:43:00,
2013-03-01 22:45:00,5.6,-0.3,30.48,NNE,14,0.0,0.0,76,0.00,,CLR,0.00,VWS V14.01,2013-03-02 04:45:00,
2013-03-01 22:48:00,9.4,3.7,30.48,NNE,14,0.0,0.0,77,0.00,,CLR,0.00,VWS V14.01,2013-03-02 04:48:00,
2013-03-01 22:50:00,4.8,-0.8,30.48,NNE,14,0.0,0.0,77,0.00,,CLR,0.00,VWS V14.01,2013-03-02 04:50:00,
2013-03-01 22:53:00,9.4,3.7,30.48,NNE,14,0.0,0.0,77,0.00,,CLR,0.00,VWS V14.01,2013-03-02 04:53:00,
2013-03-01 22:55:00,4.4,-0.7,30.48,NNE,14,0.0,0.0,79,0.00,,CLR,0.00,VWS V14.01,2013-03-02 04:55:00,
2013-03-01 22:58:00,9.3,3.8,30.49,NNE,14,0.0,0.0,78,0.00,,CLR,0.00,VWS V14.01,2013-03-02 04:58:00,
2013-03-01 23:00:00,9.2,3.7,30.49,NNE,14,0.0,0.0,78,0.00,,CLR,0.00,VWS V14.01,2013-03-02 05:00:00,
2013-03-01 23:01:00,9.2,3.7,30.49,NNE,14,0.0,0.0,78,0.00,,CLR,0.00,VWS V14.01,2013-03-02 05:01:00,
2013-03-01 23:05:00,3.8,-1.0,30.48,NNE,14,0.0,0.0,80,0.00,,CLR,0.00,VWS V14.01,2013-03-02 05:05:00,
2013-03-01 23:07:00,9.0,3.5,30.49,NNE,14,0.0,0.0,78,0.00,,CLR,0.00,VWS V14.01,2013-03-02 05:07:00,
2013-03-01 23:10:00,4.3,0.0,30.48,NNE,14,0.0,0.0,82,0.00,,CLR,0.00,VWS V14.01,2013-03-02 05:10:00,
2013-03-01 23:12:00,8.8,3.4,30.49,NNE,14,0.0,0.0,78,0.00,,CLR,0.00,VWS V14.01,2013-03-02 05:12:00,
2013-03-01 23:15:00,4.9,0.6,30.48,NNE,14,0.0,0.0,82,0.00,,CLR,0.00,VWS V14.01,2013-03-02 05:15:00,
2013-03-01 23:17:00,8.6,3.2,30.49,NNE,14,0.0,0.0,78,0.00,,CLR,0.00,VWS V14.01,2013-03-02 05:17:00,
2013-03-01 23:20:00,5.3,1.0,30.47,NNE,14,0.0,0.0,82,0.00,,CLR,0.00,VWS V14.01,2013-03-02 05:20:00,
2013-03-01 23:22:00,8.2,2.8,30.49,NNE,14,0.0,0.0,78,0.00,,CLR,0.00,VWS V14.01,2013-03-02 05:22:00,
2013-03-01 23:25:00,5.6,1.6,30.48,NNE,14,0.0,0.0,83,0.00,,CLR,0.00,VWS V14.01,2013-03-02 05:25:00,
2013-03-01 23:27:00,7.8,2.4,30.49,NNE,14,0.0,0.0,78,0.00,,CLR,0.00,VWS V14.01,2013-03-02 05:27:00,
2013-03-01 23:30:00,5.7,3.9,30.47,NNE,14,0.0,0.0,92,0.00,,CLR,0.00,VWS V14.01,2013-03-02 05:30:00,
2013-03-01 23:32:00,7.6,2.5,30.48,NNE,14,0.0,0.0,79,0.00,,CLR,0.00,VWS V14.01,2013-03-02 05:32:00,
2013-03-01 23:35:00,5.7,1.4,30.47,NNE,14,0.0,0.0,82,0.00,,CLR,0.00,VWS V14.01,2013-03-02 05:35:00,
2013-03-01 23:37:00,7.4,2.3,30.48,NNE,14,0.0,0.0,79,0.00,,CLR,0.00,VWS V14.01,2013-03-02 05:37:00,
2013-03-01 23:40:00,5.5,1.2,30.47,NNE,14,0.0,0.0,82,0.00,,CLR,0.00,VWS V14.01,2013-03-02 05:40:00,
2013-03-01 23:42:00,6.8,1.1,30.48,NNE,14,0.0,0.0,77,0.00,,CLR,0.00,VWS V14.01,2013-03-02 05:42:00,
2013-03-01 23:45:00,5.3,1.0,30.47,NNE,14,0.0,0.0,82,0.00,,CLR,0.00,VWS V14.01,2013-03-02 05:45:00,
2013-03-01 23:47:00,5.7,-0.2,30.48,NNE,14,0.0,0.0,76,0.00,,CLR,0.00,VWS V14.01,2013-03-02 05:47:00,
2013-03-01 23:50:00,5.2,1.2,30.47,NNE,14,0.0,0.0,83,0.00,,CLR,0.00,VWS V14.01,2013-03-02 05:50:00,
2013-03-01 23:52:00,4.9,-0.7,30.48,NNE,14,0.0,0.0,77,0.00,,CLR,0.00,VWS V14.01,2013-03-02 05:52:00,
2013-03-01 23:55:00,5.4,1.4,30.47,NNE,14,0.0,0.0,83,0.00,,CLR,0.00,VWS V14.01,2013-03-02 05:55:00,
2013-03-01 23:57:00,4.5,-0.6,30.48,NNE,14,0.0,0.0,79,0.00,,CLR,0.00,VWS V14.01,2013-03-02 05:57:00,